createdAt,value
2022-08-20T00:00:39.810Z,10.43
2022-08-20T00:03:16.104Z,9.95
2022-08-20T00:05:45.917Z,9.48
2022-08-20T00:08:13.188Z,10.05
2022-08-20T00:10:42.971Z,10.68
2022-08-20T00:13:18.084Z,8.93
2022-08-20T00:15:44.832Z,8.80
2022-08-20T00:18:12.381Z,14.80
2022-08-20T00:20:48.521Z,10.45
2022-08-20T00:23:16.384Z,8.93
2022-08-20T00:25:43.946Z,10.95
2022-08-20T00:28:11.838Z,11.73
2022-08-20T00:30:40.722Z,12.20
2022-08-20T00:33:11.546Z,14.68
2022-08-20T00:35:42.889Z,13.02
2022-08-20T00:38:09.367Z,14.30
2022-08-20T00:40:45.478Z,11.35
2022-08-20T00:43:38.809Z,12.32
2022-08-20T00:46:08.947Z,13.20
2022-08-20T00:48:38.582Z,12.75
2022-08-20T00:51:32.256Z,15.90
2022-08-20T00:54:05.520Z,14.43
2022-08-20T00:56:33.976Z,13.75
2022-08-20T00:59:01.865Z,12.75
2022-08-20T01:01:28.612Z,11.57
2022-08-20T01:03:57.109Z,14.95
2022-08-20T01:06:25.107Z,13.07
2022-08-20T01:08:52.257Z,13.88
2022-08-20T01:11:22.445Z,15.43
2022-08-20T01:13:49.974Z,15.88
2022-08-20T01:16:24.134Z,14.68
2022-08-20T01:21:31.395Z,14.45
2022-08-20T01:24:12.399Z,13.77
2022-08-20T01:26:43.026Z,15.05
2022-08-20T01:29:37.009Z,13.95
2022-08-20T01:32:04.949Z,15.15
2022-08-20T01:34:31.439Z,14.93
2022-08-20T01:36:58.591Z,13.82
2022-08-20T01:39:33.854Z,12.88
2022-08-20T01:42:17.259Z,13.57
2022-08-20T01:44:45.109Z,17.92
2022-08-20T01:47:20.997Z,13.82
2022-08-20T01:49:52.246Z,20.17
2022-08-20T01:52:33.602Z,14.05
2022-08-20T01:55:00.348Z,13.32
2022-08-20T01:57:27.279Z,17.10
2022-08-20T01:59:53.832Z,16.20
2022-08-20T02:02:21.286Z,14.27
2022-08-20T02:04:48.323Z,13.52
2022-08-20T02:07:18.509Z,16.35
2022-08-20T02:09:46.337Z,18.30
2022-08-20T02:12:14.237Z,15.73
2022-08-20T02:14:42.983Z,15.82
2022-08-20T02:17:11.560Z,14.70
2022-08-20T02:19:42.395Z,16.17
2022-08-20T02:22:17.999Z,14.88
2022-08-20T02:24:44.442Z,14.90
2022-08-20T02:27:11.500Z,14.68
2022-08-20T02:29:38.351Z,15.25
2022-08-20T02:32:32.436Z,15.32
2022-08-20T02:34:52.823Z,15.43
2022-08-20T02:37:19.374Z,14.27
2022-08-20T02:39:46.764Z,20.42
2022-08-20T02:42:13.436Z,13.00
2022-08-20T02:44:40.061Z,15.88
2022-08-20T02:47:07.553Z,15.07
2022-08-20T02:49:35.380Z,16.20
2022-08-20T02:52:02.176Z,17.63
2022-08-20T02:54:29.210Z,18.38
2022-08-20T02:56:55.960Z,13.35
2022-08-20T02:59:22.477Z,14.98
2022-08-20T03:02:00.165Z,14.95
2022-08-20T03:04:30.925Z,16.40
2022-08-20T03:06:58.834Z,16.60
2022-08-20T03:09:25.376Z,16.70
2022-08-20T03:11:52.751Z,17.30
2022-08-20T03:14:19.503Z,15.75
2022-08-20T03:16:45.931Z,15.48
2022-08-20T03:19:13.812Z,13.68
2022-08-20T03:21:40.317Z,15.38
2022-08-20T03:24:06.882Z,16.25
2022-08-20T03:26:33.558Z,14.27
2022-08-20T03:28:59.997Z,14.85
2022-08-20T03:31:26.411Z,13.77
2022-08-20T03:33:53.839Z,14.73
2022-08-20T03:36:27.762Z,14.88
2022-08-20T03:38:57.614Z,16.25
2022-08-20T03:41:24.332Z,13.70
2022-08-20T03:43:51.910Z,16.05
2022-08-20T03:46:22.938Z,14.32
2022-08-20T03:48:59.591Z,14.63
2022-08-20T03:51:28.228Z,16.00
2022-08-20T03:53:54.664Z,18.10
2022-08-20T03:56:21.153Z,18.08
2022-08-20T03:58:47.644Z,14.80
2022-08-20T04:01:45.525Z,14.82
2022-08-20T04:04:01.047Z,16.27
2022-08-20T04:06:29.220Z,13.85
2022-08-20T04:08:56.254Z,15.20
2022-08-20T04:11:24.140Z,13.98
2022-08-20T04:13:50.775Z,12.93
2022-08-20T04:16:17.801Z,14.30
2022-08-20T04:18:58.619Z,17.15
2022-08-20T04:21:32.506Z,11.98
2022-08-20T04:23:59.942Z,13.50
2022-08-20T04:26:26.341Z,15.18
2022-08-20T04:28:52.942Z,15.52
2022-08-20T04:31:24.882Z,18.75
2022-08-20T04:33:51.713Z,16.23
2022-08-20T04:36:18.097Z,16.50
2022-08-20T04:38:49.830Z,15.73
2022-08-20T04:41:22.615Z,16.45
2022-08-20T04:43:51.442Z,17.50
2022-08-20T04:46:17.866Z,16.92
2022-08-20T04:48:48.802Z,16.20
2022-08-20T04:51:15.739Z,16.88
2022-08-20T04:53:43.053Z,17.52
2022-08-20T04:56:09.846Z,18.45
2022-08-20T04:58:39.043Z,16.60
2022-08-20T05:01:09.650Z,14.00
2022-08-20T05:03:37.986Z,15.45
2022-08-20T05:06:07.837Z,17.08
2022-08-20T05:08:35.820Z,13.18
2022-08-20T05:11:32.949Z,10.68
2022-08-20T05:13:50.302Z,12.40
2022-08-20T05:16:18.009Z,13.43
2022-08-20T05:18:45.222Z,11.25
2022-08-20T05:21:19.744Z,12.30
2022-08-20T05:23:46.211Z,14.95
2022-08-20T05:26:15.743Z,13.13
2022-08-20T05:28:57.884Z,9.68
2022-08-20T05:31:31.258Z,8.88
2022-08-20T05:34:11.584Z,8.13
2022-08-20T05:36:41.043Z,8.40
2022-08-20T05:39:09.066Z,9.32
2022-08-20T05:41:36.291Z,6.47
2022-08-20T05:44:03.439Z,8.88
2022-08-20T05:46:31.728Z,7.00
2022-08-20T05:49:00.140Z,8.55
2022-08-20T05:51:28.277Z,9.52
2022-08-20T05:53:55.248Z,7.75
2022-08-20T05:56:26.797Z,8.00
2022-08-20T05:58:53.680Z,8.15
2022-08-20T06:01:20.210Z,7.75
2022-08-20T06:04:05.415Z,8.52
2022-08-20T06:06:45.187Z,10.50
2022-08-20T06:09:14.043Z,10.45
2022-08-20T06:11:40.494Z,7.45
2022-08-20T06:14:07.005Z,7.38
2022-08-20T06:16:33.468Z,7.38
2022-08-20T06:19:00.021Z,8.50
2022-08-20T06:21:29.757Z,8.57
2022-08-20T06:23:57.636Z,10.15
2022-08-20T06:26:29.860Z,8.10
2022-08-20T06:28:57.064Z,9.40
2022-08-20T06:31:23.702Z,11.95
2022-08-20T06:33:50.136Z,11.32
2022-08-20T06:36:18.664Z,12.88
2022-08-20T06:38:46.515Z,15.38
2022-08-20T06:41:13.325Z,13.55
2022-08-20T06:43:40.020Z,14.85
2022-08-20T06:46:06.960Z,18.88
2022-08-20T06:48:34.321Z,22.35
2022-08-20T06:51:01.536Z,22.70
2022-08-20T06:53:28.931Z,28.17
2022-08-20T06:55:59.248Z,28.60
2022-08-20T06:58:36.147Z,27.48
2022-08-20T07:01:09.592Z,33.33
2022-08-20T07:03:38.286Z,33.75
2022-08-20T07:06:05.148Z,33.10
2022-08-20T07:08:31.682Z,32.85
2022-08-20T07:10:59.399Z,34.08
2022-08-20T07:13:25.853Z,34.87
2022-08-20T07:15:54.148Z,37.53
2022-08-20T07:18:28.069Z,34.63
2022-08-20T07:23:25.721Z,38.10
2022-08-20T07:25:52.384Z,34.92
2022-08-20T07:28:22.049Z,36.90
2022-08-20T07:31:13.587Z,32.55
2022-08-20T07:33:41.332Z,33.60
2022-08-20T07:36:09.014Z,37.22
2022-08-20T07:38:36.009Z,34.33
2022-08-20T07:41:08.229Z,35.30
2022-08-20T07:43:34.956Z,32.05
2022-08-20T07:46:08.758Z,32.78
2022-08-20T07:48:39.756Z,31.83
2022-08-20T07:51:08.937Z,31.92
2022-08-20T07:53:37.656Z,29.70
2022-08-20T07:56:10.309Z,29.63
2022-08-20T07:58:41.568Z,31.15
2022-08-20T08:01:08.318Z,27.70
2022-08-20T08:03:39.545Z,26.02
2022-08-20T08:06:17.263Z,25.40
2022-08-20T08:08:55.696Z,27.15
2022-08-20T08:11:22.428Z,28.65
2022-08-20T08:13:48.912Z,28.67
2022-08-20T08:16:15.519Z,30.38
2022-08-20T08:18:46.877Z,30.25
2022-08-20T08:21:13.435Z,32.15
2022-08-20T08:23:44.585Z,28.10
2022-08-20T08:26:17.820Z,33.72
2022-08-20T08:28:46.322Z,29.58
2022-08-20T08:31:14.006Z,27.75
2022-08-20T08:33:41.802Z,30.77
2022-08-20T08:36:10.894Z,31.70
2022-08-20T08:38:39.734Z,25.75
2022-08-20T08:41:18.294Z,29.05
2022-08-20T08:43:47.776Z,27.75
2022-08-20T08:46:17.975Z,36.10
2022-08-20T08:48:47.831Z,26.08
2022-08-20T08:51:18.945Z,31.83
2022-08-20T08:53:56.894Z,27.42
2022-08-20T08:56:32.467Z,27.02
2022-08-20T08:59:05.078Z,34.00
2022-08-20T09:01:55.064Z,30.67
2022-08-20T09:04:23.145Z,28.48
2022-08-20T09:06:54.375Z,25.33
2022-08-20T09:09:29.524Z,26.10
2022-08-20T09:12:05.332Z,24.08
2022-08-20T09:14:32.378Z,26.15
2022-08-20T09:16:58.759Z,25.15
2022-08-20T09:19:25.252Z,28.08
2022-08-20T09:21:51.868Z,26.60
2022-08-20T09:24:18.538Z,26.92
2022-08-20T09:26:45.152Z,28.42
2022-08-20T09:29:11.811Z,25.60
2022-08-20T09:31:39.030Z,25.30
2022-08-20T09:34:05.693Z,25.58
2022-08-20T09:36:33.166Z,26.60
2022-08-20T09:39:00.568Z,25.02
2022-08-20T09:41:29.237Z,25.90
2022-08-20T09:43:55.647Z,23.50
2022-08-20T09:46:26.959Z,24.50
2022-08-20T09:48:54.293Z,20.00
2022-08-20T09:51:20.984Z,19.58
2022-08-20T09:53:48.920Z,21.73
2022-08-20T09:56:15.773Z,20.40
2022-08-20T09:58:55.083Z,22.50
2022-08-20T10:01:22.840Z,20.10
2022-08-20T10:03:50.682Z,18.92
2022-08-20T10:06:19.828Z,20.48
2022-08-20T10:08:47.201Z,21.77
2022-08-20T10:11:13.742Z,20.48
2022-08-20T10:13:40.191Z,19.58
2022-08-20T10:16:07.124Z,22.40
2022-08-20T10:18:35.931Z,24.25
2022-08-20T10:21:03.292Z,19.85
2022-08-20T10:23:29.733Z,21.90
2022-08-20T10:25:56.107Z,20.65
2022-08-20T10:28:22.595Z,20.35
2022-08-20T10:30:48.973Z,22.95
2022-08-20T10:33:15.428Z,23.80
2022-08-20T10:35:41.952Z,22.85
2022-08-20T10:38:08.466Z,22.30
2022-08-20T10:40:35.042Z,23.50
2022-08-20T10:43:01.869Z,25.20
2022-08-20T10:45:28.337Z,23.40
2022-08-20T10:47:54.839Z,26.58
2022-08-20T10:50:21.268Z,19.63
2022-08-20T10:52:47.744Z,25.30
2022-08-20T10:55:14.693Z,26.00
2022-08-20T10:57:42.096Z,24.08
2022-08-20T11:00:12.438Z,25.10
2022-08-20T11:02:38.929Z,24.42
2022-08-20T11:05:06.354Z,21.88
2022-08-20T11:07:50.741Z,22.05
2022-08-20T11:10:27.112Z,23.10
2022-08-20T11:12:53.591Z,23.02
2022-08-20T11:15:19.980Z,24.25
2022-08-20T11:17:46.950Z,24.48
2022-08-20T11:20:16.868Z,24.10
2022-08-20T11:22:43.257Z,22.38
2022-08-20T11:25:10.484Z,23.35
2022-08-20T11:27:39.541Z,24.63
2022-08-20T11:30:08.842Z,23.85
2022-08-20T11:32:35.666Z,22.25
2022-08-20T11:35:13.772Z,19.85
2022-08-20T11:37:48.614Z,23.45
2022-08-20T11:40:15.132Z,21.77
2022-08-20T11:43:04.319Z,19.67
2022-08-20T11:45:28.069Z,21.17
2022-08-20T11:47:54.507Z,20.85
2022-08-20T11:50:22.081Z,21.73
2022-08-20T11:52:48.946Z,20.30
2022-08-20T11:55:17.234Z,21.08
2022-08-20T11:57:47.161Z,16.17
2022-08-20T12:00:21.224Z,18.95
2022-08-20T12:02:59.307Z,20.58
2022-08-20T12:05:27.282Z,19.48
2022-08-20T12:07:53.684Z,17.45
2022-08-20T12:10:20.131Z,20.33
2022-08-20T12:12:46.548Z,15.25
2022-08-20T12:15:13.062Z,17.30
2022-08-20T12:17:39.817Z,17.45
2022-08-20T12:20:12.006Z,20.08
2022-08-20T12:22:38.963Z,15.60
2022-08-20T12:25:07.207Z,16.67
2022-08-20T12:27:35.276Z,15.48
2022-08-20T12:30:09.674Z,13.85
2022-08-20T12:35:04.525Z,19.15
2022-08-20T12:37:32.208Z,13.35
2022-08-20T12:40:00.679Z,16.98
2022-08-20T12:42:30.294Z,15.50
2022-08-20T12:44:57.843Z,13.85
2022-08-20T12:47:25.694Z,24.88
2022-08-20T12:49:56.577Z,11.52
2022-08-20T12:52:25.328Z,12.50
2022-08-20T12:54:52.325Z,12.10
2022-08-20T12:57:29.259Z,11.82
2022-08-20T13:00:03.784Z,12.80
2022-08-20T13:02:31.266Z,14.23
2022-08-20T13:05:01.246Z,16.05
2022-08-20T13:07:30.999Z,12.68
2022-08-20T13:09:58.456Z,13.15
2022-08-20T13:12:24.823Z,12.70
2022-08-20T13:14:51.238Z,14.48
2022-08-20T13:17:18.808Z,13.75
2022-08-20T13:19:46.009Z,13.88
2022-08-20T13:22:13.981Z,16.02
2022-08-20T13:24:40.752Z,13.63
2022-08-20T13:27:10.168Z,14.02
2022-08-20T13:29:37.016Z,10.70
2022-08-20T13:32:04.584Z,16.33
2022-08-20T13:34:31.635Z,15.50
2022-08-20T13:36:58.098Z,14.02
2022-08-20T13:39:24.482Z,19.70
2022-08-20T13:41:50.902Z,15.50
2022-08-20T13:44:17.339Z,15.45
2022-08-20T13:46:43.794Z,16.15
2022-08-20T13:49:10.165Z,11.25
2022-08-20T13:51:36.618Z,12.52
2022-08-20T13:54:03.445Z,11.95
2022-08-20T13:56:30.214Z,13.07
2022-08-20T13:58:56.636Z,13.13
2022-08-20T14:01:23.153Z,14.13
2022-08-20T14:03:49.558Z,10.82
2022-08-20T14:06:15.926Z,12.75
2022-08-20T14:08:42.490Z,12.30
2022-08-20T14:11:13.882Z,11.15
2022-08-20T14:13:44.590Z,11.02
2022-08-20T14:16:21.310Z,10.75
2022-08-20T14:18:52.965Z,8.85
2022-08-20T14:21:19.445Z,13.88
2022-08-20T14:23:45.887Z,8.65
2022-08-20T14:26:12.265Z,8.93
2022-08-20T14:28:38.701Z,12.75
2022-08-20T14:31:05.156Z,11.07
2022-08-20T14:33:31.593Z,10.82
2022-08-20T14:35:57.985Z,9.85
2022-08-20T14:38:24.489Z,9.52
2022-08-20T14:40:51.068Z,10.80
2022-08-20T14:43:17.650Z,7.97
2022-08-20T14:45:44.082Z,9.23
2022-08-20T14:48:10.530Z,8.55
2022-08-20T14:50:37.883Z,10.25
2022-08-20T14:53:05.226Z,11.95
2022-08-20T14:55:37.138Z,11.85
2022-08-20T14:58:08.890Z,9.18
2022-08-20T15:00:35.623Z,12.50
2022-08-20T15:03:02.343Z,7.90
2022-08-20T15:05:29.719Z,9.77
2022-08-20T15:07:57.255Z,7.35
2022-08-20T15:10:30.645Z,11.77
2022-08-20T15:12:58.529Z,12.40
2022-08-20T15:15:25.284Z,16.70
2022-08-20T15:17:57.763Z,10.20
2022-08-20T15:20:28.652Z,11.73
2022-08-20T15:22:55.138Z,9.98
2022-08-20T15:25:25.084Z,12.70
2022-08-20T15:27:56.270Z,10.95
2022-08-20T15:30:28.888Z,9.25
2022-08-20T15:32:56.136Z,10.45
2022-08-20T15:35:26.437Z,13.32
2022-08-20T15:37:56.388Z,11.52
2022-08-20T15:40:28.116Z,12.60
2022-08-20T15:42:55.908Z,11.30
2022-08-20T15:45:22.454Z,12.80
2022-08-20T15:47:54.658Z,12.85
2022-08-20T15:50:50.655Z,10.68
2022-08-20T15:53:30.361Z,9.10
2022-08-20T15:56:09.853Z,8.90
2022-08-20T15:59:01.234Z,13.20
2022-08-20T16:01:52.826Z,13.88
2022-08-20T16:04:35.108Z,12.15
2022-08-20T16:07:09.869Z,11.02
2022-08-20T16:09:37.875Z,9.57
2022-08-20T16:12:10.876Z,9.23
2022-08-20T16:14:40.787Z,11.98
2022-08-20T16:17:25.881Z,12.02
2022-08-20T16:20:26.354Z,9.90
2022-08-20T16:23:02.618Z,8.70
2022-08-20T16:25:35.960Z,10.15
2022-08-20T16:28:23.330Z,10.23
2022-08-20T16:30:59.578Z,11.65
2022-08-20T16:33:36.879Z,9.73
2022-08-20T16:36:10.826Z,11.70
2022-08-20T16:38:37.190Z,12.90
2022-08-20T16:41:18.734Z,9.98
2022-08-20T16:43:53.184Z,12.65
2022-08-20T16:48:58.289Z,21.25
2022-08-20T16:51:40.775Z,14.48
2022-08-20T16:54:08.489Z,12.23
2022-08-20T16:56:44.476Z,9.13
2022-08-20T16:59:26.921Z,8.73
2022-08-20T17:02:07.100Z,13.02
2022-08-20T17:04:58.747Z,11.65
2022-08-20T17:07:33.238Z,13.52
2022-08-20T17:10:20.260Z,8.90
2022-08-20T17:12:52.813Z,15.88
2022-08-20T17:15:26.926Z,12.00
2022-08-20T17:17:55.738Z,11.18
2022-08-20T17:20:25.113Z,11.70
2022-08-20T17:23:10.870Z,9.95
2022-08-20T17:25:38.411Z,12.15
2022-08-20T17:28:19.695Z,12.60
2022-08-20T17:30:47.377Z,12.55
2022-08-20T17:33:29.063Z,9.50
2022-08-20T17:36:00.422Z,14.13
2022-08-20T17:38:37.220Z,11.68
2022-08-20T17:41:13.882Z,11.05
2022-08-20T17:43:44.390Z,11.35
2022-08-20T17:46:16.628Z,13.75
2022-08-20T17:48:46.627Z,9.27
2022-08-20T17:51:21.757Z,8.32
2022-08-20T17:53:52.758Z,8.80
2022-08-20T17:56:25.996Z,12.20
2022-08-20T17:59:03.685Z,14.30
2022-08-20T18:01:32.525Z,13.85
2022-08-20T18:03:59.011Z,14.15
2022-08-20T18:06:40.674Z,12.25
2022-08-20T18:09:36.440Z,9.98
2022-08-20T18:12:06.892Z,16.05
2022-08-20T18:14:59.839Z,15.27
2022-08-20T18:17:45.925Z,12.73
2022-08-20T18:23:18.978Z,12.55
2022-08-20T18:25:45.688Z,10.35
2022-08-20T18:28:38.254Z,11.65
2022-08-20T18:31:08.877Z,13.00
2022-08-20T18:33:45.633Z,12.73
2022-08-20T18:36:28.123Z,13.68
2022-08-20T18:39:11.145Z,11.35
2022-08-20T18:41:54.814Z,12.55
2022-08-20T18:44:38.537Z,15.10
2022-08-20T18:47:07.571Z,11.23
2022-08-20T18:49:37.250Z,11.13
2022-08-20T18:52:09.686Z,12.60
2022-08-20T18:54:36.807Z,13.43
2022-08-20T18:57:17.629Z,10.88
2022-08-20T18:59:51.143Z,10.10
2022-08-20T19:02:23.780Z,11.48
2022-08-20T19:04:54.659Z,12.98
2022-08-20T19:07:48.983Z,10.18
2022-08-20T19:10:34.536Z,12.82
2022-08-20T19:13:27.191Z,10.88
2022-08-20T19:16:00.945Z,19.42
2022-08-20T19:18:39.588Z,13.23
2022-08-20T19:21:06.525Z,11.40
2022-08-20T19:23:48.508Z,14.05
2022-08-20T19:26:25.114Z,12.90
2022-08-20T19:28:59.392Z,12.73
2022-08-20T19:31:29.406Z,9.93
2022-08-20T19:34:23.997Z,13.20
2022-08-20T19:36:57.805Z,9.33
2022-08-20T19:39:26.069Z,13.05
2022-08-20T19:41:55.635Z,10.50
2022-08-20T19:44:40.789Z,13.57
2022-08-20T19:49:55.728Z,14.43
2022-08-20T19:52:56.043Z,13.43
2022-08-20T19:55:27.879Z,11.52
2022-08-20T19:57:58.058Z,9.50
2022-08-20T20:00:28.413Z,13.73
2022-08-20T20:02:56.098Z,14.90
2022-08-20T20:05:22.868Z,13.00
2022-08-20T20:07:51.974Z,23.02
2022-08-20T20:10:35.486Z,11.68
2022-08-20T20:13:08.413Z,11.35
2022-08-20T20:15:35.672Z,16.38
2022-08-20T20:18:02.275Z,14.60
2022-08-20T20:20:31.952Z,16.27
2022-08-20T20:23:11.455Z,13.40
2022-08-20T20:25:43.325Z,17.38
2022-08-20T20:28:17.679Z,18.58
2022-08-20T20:30:45.366Z,14.43
2022-08-20T20:33:18.588Z,12.32
2022-08-20T20:35:46.432Z,13.57
2022-08-20T20:38:24.328Z,17.73
2022-08-20T20:40:57.264Z,14.77
2022-08-20T20:43:23.579Z,14.85
2022-08-20T20:45:59.926Z,12.43
2022-08-20T20:48:33.088Z,15.60
2022-08-20T20:51:11.974Z,11.95
2022-08-20T20:53:50.847Z,12.40
2022-08-20T20:56:56.169Z,9.23
2022-08-20T20:59:22.541Z,11.32
2022-08-20T21:01:50.638Z,11.57
2022-08-20T21:04:19.733Z,16.05
2022-08-20T21:06:46.224Z,18.77
2022-08-20T21:09:13.299Z,10.38
2022-08-20T21:11:39.717Z,13.77
2022-08-20T21:14:09.122Z,11.60
2022-08-20T21:16:35.771Z,16.75
2022-08-20T21:19:05.036Z,13.40
2022-08-20T21:21:31.662Z,15.13
2022-08-20T21:23:58.038Z,11.35
2022-08-20T21:26:25.478Z,12.70
2022-08-20T21:28:51.951Z,18.45
2022-08-20T21:31:18.374Z,12.88
2022-08-20T21:33:44.949Z,12.88
2022-08-20T21:36:11.490Z,9.60
2022-08-20T21:38:37.866Z,10.57
2022-08-20T21:41:04.426Z,12.40
2022-08-20T21:43:32.841Z,11.63
2022-08-20T21:46:01.311Z,13.05
2022-08-20T21:48:28.871Z,13.15
2022-08-20T21:50:55.262Z,11.15
2022-08-20T21:53:21.694Z,10.90
2022-08-20T21:55:48.133Z,9.77
2022-08-20T21:58:15.881Z,14.40
2022-08-20T22:01:01.398Z,11.90
2022-08-20T22:03:34.935Z,12.52
2022-08-20T22:06:07.865Z,10.88
2022-08-20T22:08:34.750Z,13.20
2022-08-20T22:11:02.076Z,16.08
2022-08-20T22:13:32.615Z,13.73
2022-08-20T22:16:03.815Z,15.65
2022-08-20T22:18:30.603Z,13.02
2022-08-20T22:20:57.307Z,13.15
2022-08-20T22:23:24.629Z,23.73
2022-08-20T22:25:51.310Z,13.30
2022-08-20T22:28:19.061Z,10.98
2022-08-20T22:30:45.738Z,13.63
2022-08-20T22:33:16.648Z,9.90
2022-08-20T22:35:48.523Z,10.23
2022-08-20T22:38:15.846Z,11.82
2022-08-20T22:40:43.100Z,10.25
2022-08-20T22:43:10.283Z,8.95
2022-08-20T22:45:37.417Z,10.30
2022-08-20T22:48:05.904Z,10.40
2022-08-20T22:50:32.736Z,14.45
2022-08-20T22:53:01.097Z,13.65
2022-08-20T22:55:27.565Z,10.52
2022-08-20T22:57:54.909Z,9.10
2022-08-20T23:00:24.188Z,10.60
2022-08-20T23:02:54.989Z,14.50
2022-08-20T23:05:25.048Z,11.10
2022-08-20T23:07:54.269Z,9.95
2022-08-20T23:10:21.777Z,9.23
2022-08-20T23:12:48.191Z,10.93
2022-08-20T23:15:15.073Z,13.15
2022-08-20T23:17:41.846Z,9.18
2022-08-20T23:20:12.577Z,10.73
2022-08-20T23:22:39.274Z,8.63
2022-08-20T23:25:07.631Z,9.45
2022-08-20T23:27:39.984Z,10.50
2022-08-20T23:30:07.047Z,6.82
2022-08-20T23:32:33.485Z,11.07
2022-08-20T23:34:59.905Z,13.45
2022-08-20T23:37:26.367Z,11.60
2022-08-20T23:39:52.915Z,12.73
2022-08-20T23:42:19.318Z,12.25
2022-08-20T23:44:45.748Z,6.82
2022-08-20T23:47:19.617Z,8.52
2022-08-20T23:49:46.420Z,9.03
2022-08-20T23:52:13.038Z,7.38
2022-08-20T23:54:39.563Z,8.45
2022-08-20T23:57:08.389Z,8.45
2022-08-20T23:59:35.295Z,8.63
